createdAt,value
2023-09-16T00:00:37.076Z,64.78
2023-09-16T00:03:23.656Z,64.99
2023-09-16T00:06:14.119Z,65.15
2023-09-16T00:09:00.337Z,64.83
2023-09-16T00:11:46.561Z,64.93
2023-09-16T00:14:32.404Z,65.28
2023-09-16T00:17:19.315Z,65.25
2023-09-16T00:20:16.434Z,65.21
2023-09-16T00:23:06.692Z,65.23
2023-09-16T00:25:53.509Z,65.21
2023-09-16T00:28:41.571Z,65.05
2023-09-16T00:31:28.620Z,65.16
2023-09-16T00:34:17.266Z,65.24
2023-09-16T00:37:04.395Z,65.30
2023-09-16T00:39:53.352Z,65.33
2023-09-16T00:42:40.147Z,65.21
2023-09-16T00:45:26.737Z,65.20
2023-09-16T00:48:16.338Z,65.13
2023-09-16T00:51:04.168Z,65.32
2023-09-16T00:53:51.824Z,65.25
2023-09-16T00:56:40.475Z,65.38
2023-09-16T00:59:27.743Z,65.45
2023-09-16T01:02:16.385Z,65.44
2023-09-16T01:05:06.508Z,65.54
2023-09-16T01:07:53.636Z,65.49
2023-09-16T01:10:42.705Z,65.64
2023-09-16T01:13:29.640Z,65.66
2023-09-16T01:16:41.743Z,66.17
2023-09-16T01:19:43.755Z,66.24
2023-09-16T01:22:30.160Z,66.11
2023-09-16T01:25:17.747Z,66.25
2023-09-16T01:28:04.623Z,66.52
2023-09-16T01:30:52.132Z,66.52
2023-09-16T01:33:49.508Z,66.67
2023-09-16T01:36:38.188Z,66.93
2023-09-16T01:39:26.939Z,66.75
2023-09-16T01:42:14.821Z,66.86
2023-09-16T01:45:03.786Z,66.92
2023-09-16T01:47:50.410Z,67.04
2023-09-16T01:50:38.032Z,66.98
2023-09-16T01:53:24.611Z,67.07
2023-09-16T01:56:11.015Z,67.16
2023-09-16T01:58:58.145Z,67.26
2023-09-16T02:01:46.608Z,67.15
2023-09-16T02:04:32.959Z,67.53
2023-09-16T02:07:20.118Z,67.46
2023-09-16T02:10:07.155Z,67.65
2023-09-16T02:12:54.206Z,67.63
2023-09-16T02:15:40.755Z,67.55
2023-09-16T02:18:27.864Z,67.48
2023-09-16T02:21:16.273Z,67.65
2023-09-16T02:24:03.010Z,67.54
2023-09-16T02:26:49.486Z,67.46
2023-09-16T02:29:36.260Z,67.54
2023-09-16T02:32:22.683Z,67.55
2023-09-16T02:35:09.988Z,67.68
2023-09-16T02:37:56.283Z,67.88
2023-09-16T02:40:43.720Z,68.04
2023-09-16T02:43:32.608Z,67.81
2023-09-16T02:46:19.683Z,67.79
2023-09-16T02:49:06.281Z,67.70
2023-09-16T02:51:53.240Z,67.85
2023-09-16T02:54:39.672Z,67.74
2023-09-16T02:57:25.958Z,67.97
2023-09-16T03:00:14.695Z,67.88
2023-09-16T03:03:01.569Z,67.68
2023-09-16T03:05:48.629Z,67.65
2023-09-16T03:08:36.232Z,67.86
2023-09-16T03:11:23.420Z,67.63
2023-09-16T03:14:10.523Z,67.67
2023-09-16T03:16:57.533Z,67.61
2023-09-16T03:19:43.917Z,67.55
2023-09-16T03:22:32.711Z,67.71
2023-09-16T03:25:19.250Z,67.71
2023-09-16T03:28:06.157Z,68.32
2023-09-16T03:30:53.365Z,68.68
2023-09-16T03:33:40.289Z,69.06
2023-09-16T03:36:28.555Z,69.27
2023-09-16T03:39:16.361Z,69.61
2023-09-16T03:42:03.042Z,69.67
2023-09-16T03:44:49.398Z,69.93
2023-09-16T03:47:36.608Z,70.14
2023-09-16T03:50:23.199Z,70.47
2023-09-16T03:53:11.934Z,70.77
2023-09-16T03:56:00.818Z,70.94
2023-09-16T03:58:47.690Z,70.98
2023-09-16T04:01:42.848Z,71.29
2023-09-16T04:04:29.180Z,72.02
2023-09-16T04:07:16.017Z,71.10
2023-09-16T04:10:03.149Z,71.00
2023-09-16T04:12:50.954Z,71.07
2023-09-16T04:15:37.768Z,71.46
2023-09-16T04:18:25.833Z,71.47
2023-09-16T04:21:11.840Z,71.36
2023-09-16T04:23:58.849Z,71.44
2023-09-16T04:26:45.059Z,71.36
2023-09-16T04:29:32.884Z,71.38
2023-09-16T04:32:19.509Z,71.53
2023-09-16T04:35:07.096Z,71.51
2023-09-16T04:37:54.705Z,71.31
2023-09-16T04:40:45.561Z,71.43
2023-09-16T04:43:31.870Z,71.79
2023-09-16T04:46:19.809Z,71.18
2023-09-16T04:49:07.266Z,71.19
2023-09-16T04:51:55.199Z,71.13
2023-09-16T04:54:43.561Z,71.02
2023-09-16T04:57:30.245Z,70.92
2023-09-16T05:00:19.343Z,71.06
2023-09-16T05:03:06.726Z,71.07
2023-09-16T05:05:55.024Z,71.14
2023-09-16T05:08:45.053Z,71.25
2023-09-16T05:11:31.976Z,71.18
2023-09-16T05:14:21.478Z,71.18
2023-09-16T05:17:08.607Z,71.18
2023-09-16T05:19:57.743Z,70.95
2023-09-16T05:22:48.369Z,70.90
2023-09-16T05:25:35.893Z,70.95
2023-09-16T05:28:22.928Z,70.95
2023-09-16T05:31:10.374Z,70.74
2023-09-16T05:33:59.100Z,70.84
2023-09-16T05:36:45.427Z,71.21
2023-09-16T05:39:34.112Z,71.17
2023-09-16T05:42:21.230Z,71.11
2023-09-16T05:45:09.733Z,70.85
2023-09-16T05:47:56.500Z,71.02
2023-09-16T05:50:44.095Z,70.99
2023-09-16T05:53:34.259Z,71.01
2023-09-16T05:56:30.027Z,71.21
2023-09-16T05:59:21.056Z,70.91
2023-09-16T06:02:13.452Z,70.97
2023-09-16T06:05:00.944Z,70.97
2023-09-16T06:07:47.797Z,70.85
2023-09-16T06:10:35.816Z,70.78
2023-09-16T06:13:22.699Z,70.88
2023-09-16T06:16:09.233Z,70.89
2023-09-16T06:18:56.691Z,70.85
2023-09-16T06:21:43.607Z,70.87
2023-09-16T06:24:31.807Z,70.67
2023-09-16T06:27:18.976Z,70.82
2023-09-16T06:30:05.838Z,70.60
2023-09-16T06:32:55.607Z,70.87
2023-09-16T06:35:42.484Z,70.54
2023-09-16T06:38:30.384Z,70.56
2023-09-16T06:41:16.773Z,70.75
2023-09-16T06:44:03.433Z,70.43
2023-09-16T06:46:50.112Z,70.65
2023-09-16T06:49:36.782Z,70.67
2023-09-16T06:52:24.121Z,70.75
2023-09-16T06:55:10.855Z,70.55
2023-09-16T06:57:57.425Z,70.05
2023-09-16T07:00:44.012Z,70.17
2023-09-16T07:03:30.966Z,70.09
2023-09-16T07:06:18.213Z,70.08
2023-09-16T07:09:04.367Z,70.09
2023-09-16T07:11:50.713Z,69.63
2023-09-16T07:14:39.763Z,69.56
2023-09-16T07:17:26.969Z,69.66
2023-09-16T07:20:15.914Z,69.58
2023-09-16T07:23:02.627Z,69.41
2023-09-16T07:25:57.493Z,68.85
2023-09-16T07:28:43.646Z,68.68
2023-09-16T07:31:31.187Z,69.01
2023-09-16T07:34:17.945Z,68.79
2023-09-16T07:37:05.665Z,68.97
2023-09-16T07:39:52.497Z,68.54
2023-09-16T07:42:38.981Z,68.84
2023-09-16T07:45:26.110Z,68.49
2023-09-16T07:48:12.437Z,68.77
2023-09-16T07:50:59.491Z,68.50
2023-09-16T07:53:45.923Z,68.74
2023-09-16T07:56:32.911Z,68.18
2023-09-16T07:59:21.451Z,68.15
2023-09-16T08:02:08.771Z,67.38
2023-09-16T08:04:55.055Z,67.41
2023-09-16T08:07:42.567Z,66.74
2023-09-16T08:10:29.375Z,67.32
2023-09-16T08:13:16.108Z,66.80
2023-09-16T08:16:04.035Z,66.57
2023-09-16T08:18:51.358Z,66.22
2023-09-16T08:21:38.681Z,66.34
2023-09-16T08:24:25.274Z,65.95
2023-09-16T08:27:12.249Z,66.19
2023-09-16T08:29:58.613Z,65.34
2023-09-16T08:32:46.123Z,65.54
2023-09-16T08:35:32.630Z,65.46
2023-09-16T08:38:19.586Z,65.01
2023-09-16T08:41:17.868Z,64.69
2023-09-16T08:44:07.225Z,64.34
2023-09-16T08:47:08.866Z,64.44
2023-09-16T08:50:06.711Z,63.20
2023-09-16T08:52:57.009Z,63.13
2023-09-16T08:55:49.892Z,63.30
2023-09-16T08:58:42.280Z,63.27
2023-09-16T09:01:29.306Z,62.15
2023-09-16T09:04:17.302Z,62.33
2023-09-16T09:07:04.443Z,61.77
2023-09-16T09:09:52.184Z,61.15
2023-09-16T09:12:41.109Z,61.57
2023-09-16T09:15:28.072Z,61.89
2023-09-16T09:18:18.978Z,61.34
2023-09-16T09:21:06.559Z,60.93
2023-09-16T09:23:52.605Z,60.64
2023-09-16T09:26:39.779Z,60.10
2023-09-16T09:29:26.047Z,60.50
2023-09-16T09:32:12.012Z,59.23
2023-09-16T09:35:08.460Z,56.77
2023-09-16T09:37:54.665Z,58.78
2023-09-16T09:40:57.849Z,57.01
2023-09-16T09:43:44.238Z,57.51
2023-09-16T09:46:31.119Z,56.98
2023-09-16T09:49:20.436Z,57.22
2023-09-16T09:52:07.186Z,55.33
2023-09-16T09:54:54.593Z,56.46
2023-09-16T09:57:41.692Z,54.79
2023-09-16T10:00:28.199Z,54.66
2023-09-16T10:03:15.937Z,50.39
2023-09-16T10:06:15.281Z,53.01
2023-09-16T10:09:02.200Z,53.12
2023-09-16T10:11:49.975Z,52.34
2023-09-16T10:14:36.130Z,52.35
2023-09-16T10:17:24.353Z,49.77
2023-09-16T10:20:14.613Z,48.17
2023-09-16T10:23:03.047Z,47.03
2023-09-16T10:25:49.811Z,45.73
2023-09-16T10:28:48.568Z,43.72
2023-09-16T10:31:35.320Z,43.29
2023-09-16T10:34:31.240Z,44.66
2023-09-16T10:37:19.139Z,43.52
2023-09-16T10:40:08.720Z,43.35
2023-09-16T10:42:57.745Z,41.06
2023-09-16T10:45:46.280Z,41.56
2023-09-16T10:48:33.046Z,41.70
2023-09-16T10:51:25.090Z,37.81
2023-09-16T10:54:43.049Z,38.53
2023-09-16T10:57:43.372Z,39.84
2023-09-16T11:00:39.976Z,37.76
2023-09-16T11:03:41.847Z,38.14
2023-09-16T11:06:28.008Z,37.93
2023-09-16T11:09:16.778Z,39.05
2023-09-16T11:12:04.898Z,37.23
2023-09-16T11:14:51.724Z,37.01
2023-09-16T11:17:41.601Z,36.14
2023-09-16T11:20:33.861Z,36.13
2023-09-16T11:23:20.208Z,38.62
2023-09-16T11:26:07.954Z,36.83
2023-09-16T11:28:56.160Z,36.79
2023-09-16T11:31:42.994Z,36.02
2023-09-16T11:34:30.868Z,36.10
2023-09-16T11:38:14.783Z,35.33
2023-09-16T11:41:11.822Z,35.92
2023-09-16T11:48:55.372Z,34.76
2023-09-16T11:51:42.076Z,34.43
2023-09-16T11:55:20.323Z,32.67
2023-09-16T11:58:06.737Z,33.97
2023-09-16T12:00:53.057Z,33.36
2023-09-16T12:03:43.447Z,33.87
2023-09-16T12:06:30.706Z,33.92
2023-09-16T12:09:19.218Z,32.71
2023-09-16T12:12:07.092Z,33.97
2023-09-16T12:14:54.074Z,33.41
2023-09-16T12:17:40.958Z,33.67
2023-09-16T12:20:26.955Z,33.41
2023-09-16T12:23:14.633Z,32.94
2023-09-16T12:26:01.551Z,33.12
2023-09-16T12:28:48.489Z,32.78
2023-09-16T12:31:36.029Z,32.21
2023-09-16T12:34:23.008Z,31.65
2023-09-16T12:37:09.633Z,32.42
2023-09-16T12:39:56.119Z,32.24
2023-09-16T12:42:43.315Z,31.81
2023-09-16T12:45:30.298Z,31.55
2023-09-16T12:48:17.045Z,31.65
2023-09-16T12:51:05.231Z,31.85
2023-09-16T12:53:54.433Z,31.28
2023-09-16T12:56:50.841Z,30.86
2023-09-16T12:59:37.819Z,31.47
2023-09-16T13:02:24.859Z,30.82
2023-09-16T13:05:20.151Z,30.23
2023-09-16T13:08:06.731Z,31.20
2023-09-16T13:10:56.510Z,30.84
2023-09-16T13:13:42.649Z,30.06
2023-09-16T13:16:36.356Z,30.05
2023-09-16T13:19:22.879Z,29.41
2023-09-16T13:22:14.094Z,28.17
2023-09-16T13:25:00.601Z,28.33
2023-09-16T13:27:47.538Z,27.69
2023-09-16T13:30:39.454Z,26.70
2023-09-16T13:33:55.734Z,27.18
2023-09-16T13:36:43.364Z,29.89
2023-09-16T13:39:41.696Z,30.75
2023-09-16T13:42:27.833Z,31.21
2023-09-16T13:45:14.472Z,31.04
2023-09-16T13:48:13.031Z,30.97
2023-09-16T13:50:59.476Z,32.30
2023-09-16T13:53:46.315Z,31.79
2023-09-16T13:56:33.216Z,32.92
2023-09-16T13:59:19.758Z,33.07
2023-09-16T14:02:07.105Z,33.63
2023-09-16T14:04:53.257Z,33.51
2023-09-16T14:07:40.390Z,33.85
2023-09-16T14:10:29.801Z,33.65
2023-09-16T14:13:16.899Z,33.63
2023-09-16T14:16:03.513Z,33.44
2023-09-16T14:18:49.877Z,33.97
2023-09-16T14:21:36.202Z,34.10
2023-09-16T14:24:23.865Z,33.42
2023-09-16T14:27:11.606Z,35.36
2023-09-16T14:33:27.319Z,35.34
2023-09-16T14:36:14.026Z,34.86
2023-09-16T14:38:59.804Z,35.18
2023-09-16T14:41:48.755Z,35.59
2023-09-16T14:44:36.045Z,35.53
2023-09-16T14:47:23.012Z,35.81
2023-09-16T14:50:09.964Z,35.73
2023-09-16T14:52:57.799Z,36.49
2023-09-16T14:55:45.705Z,35.35
2023-09-16T14:58:32.451Z,35.48
2023-09-16T15:01:23.277Z,35.45
2023-09-16T15:04:11.142Z,36.56
2023-09-16T15:06:57.311Z,36.73
2023-09-16T15:09:44.529Z,36.61
2023-09-16T15:12:30.963Z,35.63
2023-09-16T15:15:17.794Z,35.42
2023-09-16T15:18:04.311Z,36.04
2023-09-16T15:20:53.203Z,36.27
2023-09-16T15:23:39.245Z,37.31
2023-09-16T15:26:26.013Z,37.14
2023-09-16T15:29:12.521Z,37.72
2023-09-16T15:32:24.738Z,37.81
2023-09-16T15:35:06.657Z,37.38
2023-09-16T15:37:53.163Z,37.25
2023-09-16T15:40:39.804Z,37.69
2023-09-16T15:43:26.301Z,37.57
2023-09-16T15:46:12.987Z,37.78
2023-09-16T15:49:00.627Z,38.02
2023-09-16T15:51:47.675Z,37.40
2023-09-16T15:54:34.406Z,37.25
2023-09-16T15:57:21.488Z,37.65
2023-09-16T16:00:09.736Z,37.17
2023-09-16T16:02:56.673Z,37.97
2023-09-16T16:05:43.174Z,38.65
2023-09-16T16:08:29.999Z,38.07
2023-09-16T16:11:17.875Z,38.68
2023-09-16T16:14:08.343Z,38.48
2023-09-16T16:17:06.332Z,39.03
2023-09-16T16:20:01.427Z,38.99
2023-09-16T16:22:48.296Z,39.41
2023-09-16T16:25:35.081Z,39.82
2023-09-16T16:28:21.964Z,40.92
2023-09-16T16:31:08.596Z,41.63
2023-09-16T16:33:54.938Z,42.21
2023-09-16T16:36:41.259Z,42.59
2023-09-16T16:39:30.035Z,42.67
2023-09-16T16:42:17.458Z,42.52
2023-09-16T16:45:04.947Z,42.60
2023-09-16T16:47:51.336Z,42.97
2023-09-16T16:50:38.104Z,43.19
2023-09-16T16:53:24.109Z,43.43
2023-09-16T16:56:09.993Z,43.39
2023-09-16T16:58:56.499Z,43.61
2023-09-16T17:01:44.002Z,43.86
2023-09-16T17:04:31.486Z,44.12
2023-09-16T17:07:18.346Z,44.61
2023-09-16T17:10:06.210Z,44.80
2023-09-16T17:12:52.088Z,44.33
2023-09-16T17:15:42.109Z,44.60
2023-09-16T17:18:28.364Z,45.17
2023-09-16T17:21:15.024Z,45.12
2023-09-16T17:24:02.697Z,45.19
2023-09-16T17:26:51.857Z,45.77
2023-09-16T17:29:38.050Z,46.04
2023-09-16T17:32:25.497Z,46.64
2023-09-16T17:35:12.025Z,46.41
2023-09-16T17:37:58.011Z,47.00
2023-09-16T17:40:45.033Z,47.42
2023-09-16T17:43:31.082Z,47.68
2023-09-16T17:46:18.048Z,47.98
2023-09-16T17:49:04.257Z,48.35
2023-09-16T17:51:51.349Z,48.55
2023-09-16T17:54:37.126Z,48.89
2023-09-16T17:57:27.015Z,49.20
2023-09-16T18:00:14.298Z,48.79
2023-09-16T18:03:04.733Z,49.15
2023-09-16T18:05:51.837Z,49.05
2023-09-16T18:08:38.781Z,48.92
2023-09-16T18:11:25.776Z,49.04
2023-09-16T18:14:11.751Z,49.79
2023-09-16T18:16:58.850Z,49.64
2023-09-16T18:19:45.341Z,49.92
2023-09-16T18:22:33.214Z,50.53
2023-09-16T18:25:20.455Z,50.46
2023-09-16T18:28:08.453Z,50.63
2023-09-16T18:30:54.967Z,50.77
2023-09-16T18:33:41.775Z,50.77
2023-09-16T18:36:31.320Z,51.16
2023-09-16T18:39:18.330Z,51.00
2023-09-16T18:42:06.663Z,51.24
2023-09-16T18:44:53.479Z,51.43
2023-09-16T18:47:41.398Z,51.86
2023-09-16T18:50:27.871Z,51.99
2023-09-16T18:53:14.948Z,52.16
2023-09-16T18:56:01.353Z,52.28
2023-09-16T18:58:49.001Z,52.35
2023-09-16T19:01:36.454Z,52.90
2023-09-16T19:04:24.188Z,52.81
2023-09-16T19:07:11.158Z,53.06
2023-09-16T19:09:58.307Z,53.08
2023-09-16T19:12:45.097Z,53.01
2023-09-16T19:15:31.196Z,53.34
2023-09-16T19:18:17.914Z,53.66
2023-09-16T19:21:04.653Z,53.64
2023-09-16T19:23:51.857Z,53.82
2023-09-16T19:26:40.793Z,54.04
2023-09-16T19:29:28.871Z,54.20
2023-09-16T19:32:15.561Z,54.39
2023-09-16T19:35:02.805Z,54.38
2023-09-16T19:37:49.257Z,54.25
2023-09-16T19:40:36.793Z,54.37
2023-09-16T19:43:23.581Z,54.41
2023-09-16T19:46:10.729Z,54.79
2023-09-16T19:48:58.270Z,54.77
2023-09-16T19:51:44.397Z,54.91
2023-09-16T19:54:31.318Z,55.11
2023-09-16T19:57:18.441Z,55.24
2023-09-16T20:00:05.846Z,55.58
2023-09-16T20:02:53.730Z,56.09
2023-09-16T20:05:41.267Z,56.14
2023-09-16T20:08:27.980Z,56.23
2023-09-16T20:11:14.626Z,55.99
2023-09-16T20:14:01.079Z,56.00
2023-09-16T20:16:48.239Z,55.96
2023-09-16T20:19:38.001Z,55.86
2023-09-16T20:22:24.864Z,55.98
2023-09-16T20:25:14.968Z,56.39
2023-09-16T20:28:02.763Z,56.56
2023-09-16T20:30:49.335Z,56.88
2023-09-16T20:33:36.510Z,57.10
2023-09-16T20:36:23.149Z,56.78
2023-09-16T20:39:13.975Z,57.00
2023-09-16T20:42:00.788Z,57.30
2023-09-16T20:44:47.244Z,57.06
2023-09-16T20:47:33.837Z,57.17
2023-09-16T20:50:20.812Z,57.47
2023-09-16T20:53:07.791Z,57.09
2023-09-16T20:55:55.357Z,57.26
2023-09-16T20:58:44.398Z,57.09
2023-09-16T21:01:31.533Z,57.00
2023-09-16T21:04:18.750Z,57.12
2023-09-16T21:07:05.993Z,57.49
2023-09-16T21:09:52.922Z,57.32
2023-09-16T21:12:42.385Z,57.35
2023-09-16T21:15:28.868Z,57.55
2023-09-16T21:18:16.219Z,57.61
2023-09-16T21:21:02.271Z,57.41
2023-09-16T21:23:49.279Z,57.37
2023-09-16T21:26:36.175Z,57.34
2023-09-16T21:29:23.606Z,57.21
2023-09-16T21:32:12.373Z,57.38
2023-09-16T21:34:59.667Z,57.45
2023-09-16T21:37:46.452Z,57.57
2023-09-16T21:40:32.878Z,57.26
2023-09-16T21:43:21.613Z,57.39
2023-09-16T21:46:10.737Z,57.31
2023-09-16T21:48:56.902Z,57.35
2023-09-16T21:51:46.241Z,57.63
2023-09-16T21:54:35.397Z,57.57
2023-09-16T21:57:21.774Z,57.77
2023-09-16T22:00:18.949Z,57.49
2023-09-16T22:03:05.677Z,57.35
2023-09-16T22:05:54.456Z,57.45
2023-09-16T22:08:41.171Z,57.58
2023-09-16T22:11:28.232Z,57.38
2023-09-16T22:14:14.620Z,57.60
2023-09-16T22:17:01.450Z,57.68
2023-09-16T22:19:48.193Z,57.78
2023-09-16T22:22:35.455Z,57.98
2023-09-16T22:25:23.341Z,58.04
2023-09-16T22:28:11.276Z,58.17
2023-09-16T22:30:58.800Z,58.28
2023-09-16T22:33:45.734Z,58.32
2023-09-16T22:36:31.830Z,58.40
2023-09-16T22:39:18.496Z,58.14
2023-09-16T22:42:06.036Z,58.11
2023-09-16T22:45:04.256Z,58.23
2023-09-16T22:47:52.659Z,58.48
2023-09-16T22:50:39.222Z,58.49
2023-09-16T22:53:25.723Z,58.31
2023-09-16T22:56:11.658Z,58.49
2023-09-16T22:58:58.491Z,58.82
2023-09-16T23:01:44.396Z,58.38
2023-09-16T23:04:31.137Z,58.59
2023-09-16T23:07:18.149Z,58.69
2023-09-16T23:10:05.569Z,58.33
2023-09-16T23:12:51.894Z,58.41
2023-09-16T23:15:38.887Z,58.45
2023-09-16T23:18:25.360Z,58.39
2023-09-16T23:21:12.773Z,58.52
2023-09-16T23:23:58.999Z,58.70
2023-09-16T23:26:46.517Z,58.60
2023-09-16T23:29:33.431Z,58.59
2023-09-16T23:32:19.901Z,58.69
2023-09-16T23:35:08.052Z,58.36
2023-09-16T23:37:55.044Z,58.71
2023-09-16T23:40:43.067Z,58.77
2023-09-16T23:43:29.548Z,59.08
2023-09-16T23:46:16.319Z,59.28
2023-09-16T23:49:05.110Z,59.30
2023-09-16T23:51:54.442Z,59.17
2023-09-16T23:54:45.098Z,59.46
2023-09-16T23:57:31.428Z,59.45
